Flight Track Log - Related Links

Times and Time Zones

All times are in EDT time to prevent confusion due to time zone crossing. See the AAY804 flight status page for this flight to view local times or setup timezone preferences in your user account.


Time Position Orientation Groundspeed Altitude Reporting Facility
EDT Latitude Longitude Course Direction KTS MPH feet Rate Location/Type
Thu 06:46:57 AM 27.8664 -82.6817 340° North 154 177 36,000  Level Miami Center
Thu 06:53:01 AM 28.2206 -82.8318 352° North 373 429 17,200 -1,270 Descending FlightAware ADS-B
Thu 06:56:24 AM 28.5764 -82.8873 352° North 390 449 24,000 1,927 Climbing FlightAware ADS-B
Thu 06:57:07 AM 28.6534 -82.9034 343° North 392 451 25,100 1,840 Climbing FlightAware ADS-B
Thu 06:57:39 AM 28.7095 -82.9238 343° North 390 449 26,300 1,266 Climbing FlightAware ADS-B
Thu 06:58:56 AM 28.8261 -82.9661 343° North 383 441 27,400 1,226 Climbing Jacksonville Center
Thu 06:59:56 AM 28.9325 -83.0042 343° North 388 447 29,100 1,300 Climbing Jacksonville Center
Thu 07:00:56 AM 29.0389 -83.0444 342° North 393 452 30,000 850 Climbing Jacksonville Center
Thu 07:01:56 AM 29.1517 -83.0828 343° North 404 465 30,800 1,050 Climbing Jacksonville Center
Thu 07:02:56 AM 29.2622 -83.1233 342° North 409 471 32,100 1,650 Climbing Jacksonville Center
Thu 07:03:56 AM 29.3686 -83.1642 342° North 409 471 34,100 1,600 Climbing Jacksonville Center
Thu 07:04:56 AM 29.4750 -83.2003 344° North 398 458 35,300 900 Climbing Jacksonville Center
Thu 07:05:56 AM 29.5792 -83.2389 342° North 398 458 35,900 300 Climbing Jacksonville Center
Thu 07:06:56 AM 29.6814 -83.2797 341° North 393 452 35,900  Level Jacksonville Center
Thu 07:07:56 AM 29.7856 -83.3139 344° North 388 447 35,900  Level Jacksonville Center
Thu 07:08:56 AM 29.8858 -83.3500 343° North 383 441 35,900  Level Jacksonville Center
Thu 07:09:56 AM 29.9900 -83.3889 342° North 383 441 35,900  Level Jacksonville Center
Thu 07:10:56 AM 30.1025 -83.4303 342° North 383 441 35,900  Level Jacksonville Center
Thu 07:11:56 AM 30.2067 -83.4669 343° North 383 441 35,900  Level Jacksonville Center
Thu 07:12:56 AM 30.3089 -83.5036 343° North 383 441 35,900  Level Jacksonville Center
Thu 07:13:56 AM 30.4089 -83.5428 341° North 383 441 35,900  Level Jacksonville Center
Thu 07:14:56 AM 30.5153 -83.5797 343° North 383 441 35,900 50 Level Jacksonville Center
Thu 07:15:56 AM 30.6028 -83.6117 343° North 383 441 36,000 50 Climbing Jacksonville Center
Thu 07:16:56 AM 30.7047 -83.6511 342° North 383 441 36,000 -50 Level Jacksonville Center
Thu 07:17:56 AM 30.8069 -83.6908 342° North 383 441 35,900 -50 Descending Jacksonville Center
Thu 07:18:56 AM 30.9089 -83.7303 342° North 383 441 35,900 30 Level Jacksonville Center
Thu 07:21:16 AM 31.1578 -83.8206 343° North 389 448 36,000 30 Climbing Atlanta Center
Thu 07:22:16 AM 31.2603 -83.8617 341° North 384 442 36,000  Level Atlanta Center
Thu 07:23:16 AM 31.3647 -83.9003 342° North 384 442 36,000  Level Atlanta Center
Thu 07:24:16 AM 31.4647 -83.9414 341° North 384 442 36,000 -50 Level Atlanta Center
Thu 07:25:16 AM 31.5714 -83.9731 346° North 384 442 35,900  Descending Atlanta Center
Thu 07:26:16 AM 31.6819 -83.9975 349° North 384 442 36,000 50 Climbing Atlanta Center
Thu 07:27:16 AM 31.7906 -84.0194 350° North 390 449 36,000  Level Atlanta Center
Thu 07:28:16 AM 31.8989 -84.0436 349° North 390 449 36,000 -450 Level Atlanta Center
Thu 07:29:16 AM 32.0056 -84.0683 349° North 390 449 35,100 -700 Descending Atlanta Center
Thu 07:30:16 AM 32.1181 -84.0928 350° North 397 457 34,600 -600 Descending Atlanta Center
Thu 07:31:16 AM 32.2286 -84.1175 349° North 403 464 33,900 -300 Descending Atlanta Center
Thu 07:32:16 AM 32.3206 -84.1372 350° North 410 472 34,000 50 Climbing Atlanta Center
Thu 07:33:16 AM 32.4458 -84.1669 349° North 410 472 34,000 -50 Level Atlanta Center
Thu 07:34:16 AM 32.5583 -84.1942 348° North 410 472 33,900  Descending Atlanta Center
Thu 07:35:16 AM 32.6733 -84.2164 351° North 410 472 34,000 50 Climbing Atlanta Center
Thu 07:36:16 AM 32.7881 -84.2464 348° North 410 472 34,000  Level Atlanta Center
Thu 07:37:16 AM 32.9028 -84.2714 350° North 410 472 34,000  Level Atlanta Center
Thu 07:38:16 AM 33.0156 -84.2939 351° North 410 472 34,000 -450 Level Atlanta Center
Thu 07:39:16 AM 33.1303 -84.3217 349° North 410 472 33,100 -950 Descending Atlanta Center
Thu 07:40:16 AM 33.2408 -84.3492 348° North 410 472 32,100 -1,700 Descending Atlanta Center
Thu 07:41:16 AM 33.3597 -84.3747 350° North 410 472 29,700 -2,300 Descending Atlanta Center
Thu 07:42:16 AM 33.4639 -84.4000 349° North 397 457 27,500 -2,250 Descending Atlanta Center
Thu 07:43:16 AM 33.5725 -84.4253 349° North 391 450 25,200 -1,924 Descending Atlanta Center
Thu 07:46:13 AM 34.1064 -84.6930 336° Northwest 351 404 19,900 -1,680 Descending FlightAware ADS-B
Thu 07:47:01 AM 34.1771 -84.7315 336° Northwest 354 407 18,900 537 Descending FlightAware ADS-B
Thu 07:48:16 AM 34.0514 -84.6656 336° Northwest 365 420 21,000 178 Climbing Atlanta Center
Thu 07:49:16 AM 34.1408 -84.7164 335° Northwest 359 413 19,300 -1,350 Descending Atlanta Center
Thu 07:50:16 AM 34.2306 -84.7650 336° Northwest 359 413 18,300 -900 Descending Atlanta Center
Thu 07:51:16 AM 34.3200 -84.8083 338° Northwest 353 406 17,500 -1,300 Descending Atlanta Center
Thu 07:52:16 AM 34.4114 -84.8597 335° Northwest 353 406 15,700 -1,800 Descending Atlanta Center
Thu 07:53:16 AM 34.5008 -84.9083 336° Northwest 353 406 13,900 -1,700 Descending Atlanta Center
Thu 07:54:16 AM 34.5881 -84.9572 335° Northwest 353 406 12,300 -1,300 Descending Atlanta Center
Thu 07:55:16 AM 34.6736 -84.9833 346° North 339 390 11,300 -1,300 Descending Atlanta Center
Thu 07:56:16 AM 34.7567 -85.0044 348° North 315 362 9,700 -1,550 Descending Atlanta Center
Thu 07:57:16 AM 34.8381 -85.0233 349° North 301 346 8,200 -1,550 Descending Atlanta Center
Thu 07:58:16 AM 34.9150 -85.0419 349° North 294 338 6,600 -1,100 Descending Atlanta Center
Thu 07:59:16 AM 34.9881 -85.0581 350° North 283 326 6,000 -750 Descending Atlanta Center
Thu 08:00:16 AM 35.0567 -85.0689 353° North 264 304 5,100 -900 Descending Atlanta Center
Thu 08:02:00 AM 35.0333 -85.2000 331° Northwest  Level FlightAware Approximate

Login

Don't have an account? Register now (free) for customized features, flight alerts, and more!